Time;durP1;ratioP1;P1;durP2;ratioP2;P2;SDS_P1;SDS_P2;PMS_P1;PMS_P2;Temp;Humidity;BMP_temperature;BMP_pressure;BME280_temperature;BME280_humidity;BME280_pressure;Samples;Min_cycle;Max_cycle;Signal;HPM_P1;HPM_P2
2020/12/16 00:00:33;;;;;;;132.13;32.33;;;;;;;1.61;100.00;101437.59;5010954;28;20494;-69
2020/12/16 00:02:58;;;;;;;201.60;38.50;;;;;;;1.54;100.00;101445.03;5001393;28;20037;-68
2020/12/16 00:05:24;;;;;;;133.43;29.35;;;;;;;1.49;100.00;101446.28;5011575;28;20037;-69
2020/12/16 00:07:49;;;;;;;353.27;46.50;;;;;;;1.45;100.00;101439.47;5010775;28;20030;-69
2020/12/16 00:10:15;;;;;;;375.35;43.50;;;;;;;1.44;100.00;101437.78;5003279;28;20064;-69
2020/12/16 00:12:41;;;;;;;261.45;43.65;;;;;;;1.47;100.00;101441.09;5010270;28;20026;-69
2020/12/16 00:15:08;;;;;;;215.30;42.65;;;;;;;1.46;100.00;101441.19;5011403;28;20030;-69
2020/12/16 00:17:34;;;;;;;533.38;65.57;;;;;;;1.44;100.00;101451.00;5009394;28;20103;-68
2020/12/16 00:20:01;;;;;;;318.17;50.35;;;;;;;1.42;100.00;101442.31;5011119;28;20033;-68
2020/12/16 00:22:26;;;;;;;653.42;82.40;;;;;;;1.74;100.00;101445.63;5010528;28;20614;-69
2020/12/16 00:24:52;;;;;;;748.45;98.13;;;;;;;2.20;100.00;101451.53;5011046;28;20034;-69
2020/12/16 00:27:17;;;;;;;656.83;83.20;;;;;;;2.71;100.00;101446.47;5009850;28;20383;-69
2020/12/16 00:29:43;;;;;;;985.15;111.88;;;;;;;3.15;100.00;101442.63;5010623;28;20026;-69
2020/12/16 00:32:09;;;;;;;805.42;97.88;;;;;;;3.31;100.00;101440.66;5010297;28;20038;-69
2020/12/16 00:34:34;;;;;;;701.97;83.88;;;;;;;3.46;100.00;101432.56;5009237;28;20026;-69
2020/12/16 00:37:00;;;;;;;549.03;77.57;;;;;;;3.61;100.00;101435.03;5004713;28;20033;-69
2020/12/16 00:39:26;;;;;;;668.35;86.90;;;;;;;3.70;100.00;101440.63;5009987;28;20029;-69
2020/12/16 00:41:51;;;;;;;450.00;68.90;;;;;;;3.82;100.00;101456.56;5010281;28;20065;-69
2020/12/16 00:44:17;;;;;;;372.58;63.08;;;;;;;3.97;100.00;101453.78;5010109;28;20531;-69
2020/12/16 00:46:42;;;;;;;564.35;79.72;;;;;;;4.02;100.00;101457.81;5010231;28;20084;-69
2020/12/16 00:49:08;;;;;;;641.88;83.43;;;;;;;4.08;100.00;101448.56;5009628;28;20590;-70
2020/12/16 00:51:34;;;;;;;472.48;65.95;;;;;;;4.13;100.00;101454.38;5026028;28;20150;-69
2020/12/16 00:53:59;;;;;;;575.85;74.32;;;;;;;4.17;100.00;101447.91;5009778;28;20549;-69
2020/12/16 00:56:25;;;;;;;533.70;70.15;;;;;;;4.26;100.00;101457.84;5009778;28;20127;-70
2020/12/16 00:58:51;;;;;;;736.15;84.40;;;;;;;4.32;100.00;101460.06;5009764;28;20045;-69
2020/12/16 01:01:16;;;;;;;660.25;81.88;;;;;;;4.36;100.00;101458.88;5010435;28;20044;-69
2020/12/16 01:03:42;;;;;;;494.95;64.88;;;;;;;4.44;100.00;101458.31;5009848;28;20038;-69
2020/12/16 01:06:08;;;;;;;608.50;69.15;;;;;;;4.48;100.00;101464.28;5010255;28;20049;-69
2020/12/16 01:08:33;;;;;;;612.13;72.93;;;;;;;4.51;100.00;101456.91;5009244;28;20520;-69
2020/12/16 01:10:59;;;;;;;524.55;68.63;;;;;;;4.54;100.00;101458.50;5002474;28;20060;-69
2020/12/16 01:13:24;;;;;;;709.42;79.03;;;;;;;4.57;100.00;101466.25;5009545;28;20553;-69
2020/12/16 01:15:50;;;;;;;701.38;84.80;;;;;;;4.59;100.00;101467.00;5010196;28;20130;-69
2020/12/16 01:18:15;;;;;;;710.80;82.20;;;;;;;4.61;100.00;101462.41;5007897;28;20084;-69
2020/12/16 01:20:41;;;;;;;749.95;79.45;;;;;;;4.63;100.00;101468.47;5010069;28;20044;-68
2020/12/16 01:23:07;;;;;;;480.27;60.45;;;;;;;4.63;100.00;101466.66;5009495;28;20037;-69
2020/12/16 01:25:33;;;;;;;674.28;75.43;;;;;;;4.65;100.00;101474.50;5008853;28;20046;-69
2020/12/16 01:28:00;;;;;;;658.60;74.45;;;;;;;4.67;100.00;101476.09;5009445;28;20523;-69
2020/12/16 01:30:27;;;;;;;817.55;86.28;;;;;;;4.69;100.00;101462.69;5009588;28;20025;-69
2020/12/16 01:32:54;;;;;;;683.85;67.95;;;;;;;4.72;100.00;101466.91;5009602;28;20034;-69
2020/12/16 01:35:20;;;;;;;640.45;69.28;;;;;;;4.77;100.00;101468.31;5007915;28;20018;-69
2020/12/16 01:37:46;;;;;;;805.25;81.10;;;;;;;4.80;100.00;101467.22;5005431;28;20025;-69
2020/12/16 01:40:11;;;;;;;652.95;67.35;;;;;;;4.83;100.00;101467.00;5008799;28;20034;-69
2020/12/16 01:42:39;;;;;;;822.45;77.32;;;;;;;4.83;100.00;101474.97;5008538;28;20030;-69
2020/12/16 01:45:07;;;;;;;729.03;78.30;;;;;;;4.85;100.00;101481.00;5009266;28;20108;-69
2020/12/16 01:47:32;;;;;;;692.83;66.28;;;;;;;4.86;100.00;101485.34;5023545;28;20034;-69
2020/12/16 01:49:58;;;;;;;762.45;72.07;;;;;;;4.87;100.00;101481.72;5009444;28;20041;-69
2020/12/16 01:52:26;;;;;;;390.42;49.97;;;;;;;4.89;100.00;101480.66;5009287;28;20100;-69
2020/12/16 01:54:54;;;;;;;588.95;60.83;;;;;;;4.91;100.00;101476.06;5008837;28;20073;-69
2020/12/16 01:57:22;;;;;;;769.63;72.25;;;;;;;4.94;100.00;101470.53;5008078;28;20524;-69
2020/12/16 01:59:50;;;;;;;518.22;55.45;;;;;;;4.99;100.00;101470.19;5008680;28;20136;-69
2020/12/16 02:02:18;;;;;;;729.88;68.32;;;;;;;5.05;100.00;101475.06;4999829;28;20034;-69
2020/12/16 02:04:47;;;;;;;585.20;55.22;;;;;;;5.09;100.00;101487.16;5009264;28;20056;-69
2020/12/16 02:07:14;;;;;;;570.33;57.83;;;;;;;5.11;100.00;101484.38;5008526;28;20430;-69
2020/12/16 02:09:43;;;;;;;737.58;71.57;;;;;;;5.11;100.00;101487.03;5009175;28;20053;-69
2020/12/16 02:12:13;;;;;;;547.78;55.63;;;;;;;5.11;100.00;101484.38;5009403;28;20026;-69
2020/12/16 02:14:39;;;;;;;780.50;73.47;;;;;;;5.12;100.00;101492.25;5008882;28;20495;-69
2020/12/16 02:17:06;;;;;;;717.63;70.30;;;;;;;5.13;100.00;101495.75;5002038;28;20034;-69
2020/12/16 02:19:39;;;;;;;689.83;67.25;;;;;;;5.14;100.00;101479.69;5002719;28;20072;-69
2020/12/16 02:22:04;;;;;;;536.25;57.40;;;;;;;5.17;100.00;101474.16;4996748;28;20104;-69
2020/12/16 02:24:31;;;;;;;681.03;68.53;;;;;;;5.23;100.00;101482.63;5009247;28;20034;-69
2020/12/16 02:26:57;;;;;;;412.95;48.17;;;;;;;5.22;100.00;101481.78;5008934;28;20095;-69
2020/12/16 02:29:24;;;;;;;735.85;67.45;;;;;;;5.24;100.00;101479.84;5008720;28;20038;-69
2020/12/16 02:31:52;;;;;;;491.58;55.45;;;;;;;5.25;100.00;101480.69;5009023;28;20549;-69
2020/12/16 02:34:17;;;;;;;313.60;42.65;;;;;;;5.25;100.00;101483.34;5007907;28;20116;-69
2020/12/16 02:36:43;;;;;;;792.05;69.50;;;;;;;5.23;100.00;101478.16;5001822;28;20134;-69
2020/12/16 02:39:10;;;;;;;764.60;65.30;;;;;;;5.19;100.00;101485.50;5008072;28;20061;-69
2020/12/16 02:41:36;;;;;;;806.03;75.47;;;;;;;5.15;100.00;101486.69;5006811;28;20499;-69
2020/12/16 02:44:02;;;;;;;670.28;59.80;;;;;;;5.13;100.00;101488.63;5008312;28;20065;-69
2020/12/16 02:46:28;;;;;;;741.13;65.45;;;;;;;5.10;100.00;101494.16;5008363;28;20037;-69
2020/12/16 02:48:53;;;;;;;524.85;56.00;;;;;;;5.08;100.00;101500.59;5008574;28;20454;-69
2020/12/16 02:51:19;;;;;;;649.05;62.63;;;;;;;5.06;100.00;101502.50;5007744;28;20069;-69
2020/12/16 02:53:46;;;;;;;801.67;73.53;;;;;;;5.03;100.00;101505.41;5008077;28;20034;-69
2020/12/16 02:56:11;;;;;;;875.25;73.03;;;;;;;5.03;100.00;101500.06;5008365;28;20030;-69
2020/12/16 02:58:45;;;;;;;672.33;59.53;;;;;;;4.97;100.00;101504.03;5009062;28;20038;-69
2020/12/16 03:01:11;;;;;;;724.75;72.32;;;;;;;4.94;100.00;101506.91;5006131;28;20030;-69
2020/12/16 03:03:37;;;;;;;777.50;68.82;;;;;;;4.91;100.00;101505.31;5006616;28;20379;-69
2020/12/16 03:06:03;;;;;;;837.63;71.03;;;;;;;4.90;100.00;101503.63;5011071;28;20061;-69
2020/12/16 03:08:29;;;;;;;723.65;70.15;;;;;;;4.89;100.00;101491.31;5011768;28;20115;-69
2020/12/16 03:10:55;;;;;;;638.83;62.72;;;;;;;4.90;100.00;101489.50;5027403;28;20101;-69
2020/12/16 03:13:21;;;;;;;685.10;62.38;;;;;;;4.88;100.00;101496.75;5011947;28;20045;-69
2020/12/16 03:15:47;;;;;;;676.65;65.85;;;;;;;4.85;100.00;101499.63;5012016;28;20038;-69
2020/12/16 03:18:12;;;;;;;653.85;59.92;;;;;;;4.80;100.00;101497.28;4997907;28;20042;-69
2020/12/16 03:20:38;;;;;;;746.42;70.57;;;;;;;4.76;100.00;101506.44;5011411;28;20069;-69
2020/12/16 03:23:04;;;;;;;536.78;52.42;;;;;;;4.79;100.00;101495.59;5010942;28;20402;-69
2020/12/16 03:25:29;;;;;;;557.47;56.55;;;;;;;4.77;100.00;101502.84;5009449;28;20160;-69
2020/12/16 03:27:55;;;;;;;733.85;67.20;;;;;;;4.74;100.00;101508.38;5010878;28;20041;-69
2020/12/16 03:30:21;;;;;;;700.60;65.82;;;;;;;4.72;100.00;101509.44;5011895;28;20076;-69
2020/12/16 03:32:46;;;;;;;649.47;62.20;;;;;;;4.67;100.00;101504.50;5011481;28;20104;-69
2020/12/16 03:35:12;;;;;;;838.97;71.38;;;;;;;4.64;100.00;101512.69;5011645;28;21674;-69
2020/12/16 03:37:38;;;;;;;675.22;61.47;;;;;;;4.61;100.00;101491.63;5006717;28;20041;-69
2020/12/16 03:40:04;;;;;;;771.13;66.97;;;;;;;4.57;100.00;101501.66;5012066;28;20038;-69
2020/12/16 03:42:29;;;;;;;696.65;61.72;;;;;;;4.53;100.00;101488.69;5011571;28;20034;-69
2020/12/16 03:44:55;;;;;;;728.42;68.72;;;;;;;4.52;100.00;101492.28;5012210;28;20112;-69
2020/12/16 03:47:20;;;;;;;396.02;40.85;;;;;;;4.49;100.00;101490.72;5010753;28;20035;-69
2020/12/16 03:49:46;;;;;;;395.42;44.17;;;;;;;4.45;100.00;101493.72;5011292;28;20030;-69
2020/12/16 03:52:11;;;;;;;717.13;63.80;;;;;;;4.40;100.00;101484.25;5010645;28;20030;-69
2020/12/16 03:54:37;;;;;;;697.92;60.38;;;;;;;4.35;100.00;101478.44;5011054;28;20100;-69
2020/12/16 03:57:03;;;;;;;665.63;56.97;;;;;;;4.30;100.00;101472.59;5009557;28;20041;-69
2020/12/16 03:59:29;;;;;;;602.53;55.83;;;;;;;4.24;100.00;101469.53;5010681;28;20038;-69
2020/12/16 04:01:54;;;;;;;504.60;49.75;;;;;;;4.19;100.00;101471.69;5009387;28;20029;-69
2020/12/16 04:04:20;;;;;;;724.55;61.47;;;;;;;4.10;100.00;101476.69;5010777;28;20018;-69
2020/12/16 04:06:45;;;;;;;528.88;53.47;;;;;;;4.04;100.00;101473.63;5009187;28;20029;-69
2020/12/16 04:09:12;;;;;;;544.28;56.30;;;;;;;3.96;100.00;101471.50;5010244;28;20037;-69
2020/12/16 04:11:38;;;;;;;539.33;51.65;;;;;;;3.90;100.00;101471.94;5009911;28;20032;-69
2020/12/16 04:14:04;;;;;;;661.88;57.70;;;;;;;3.85;100.00;101477.56;5010456;28;20044;-69
2020/12/16 04:16:30;;;;;;;642.45;60.80;;;;;;;3.81;100.00;101478.72;5008519;28;20402;-69
2020/12/16 04:18:55;;;;;;;384.08;43.20;;;;;;;3.79;100.00;101474.50;5010264;28;20088;-69
2020/12/16 04:21:21;;;;;;;303.08;37.35;;;;;;;3.74;100.00;101468.66;5009425;28;20465;-69
2020/12/16 04:23:46;;;;;;;637.45;61.10;;;;;;;3.70;100.00;101469.81;5010462;28;20042;-68
2020/12/16 04:26:13;;;;;;;501.85;52.03;;;;;;;3.62;100.00;101462.41;5009456;28;20045;-69
2020/12/16 04:28:39;;;;;;;609.45;63.17;;;;;;;3.56;100.00;101474.28;5009970;28;20042;-69
2020/12/16 04:31:07;;;;;;;475.60;50.60;;;;;;;3.51;100.00;101472.91;5009246;28;20048;-69
2020/12/16 04:33:33;;;;;;;547.25;55.72;;;;;;;3.45;100.00;101473.31;5009868;28;20114;-69
2020/12/16 04:35:59;;;;;;;553.95;55.65;;;;;;;3.40;100.00;101476.28;5005036;28;20114;-69
2020/12/16 04:38:25;;;;;;;366.25;40.78;;;;;;;3.33;100.00;101475.03;5007705;28;20078;-69
2020/12/16 04:40:51;;;;;;;704.75;65.57;;;;;;;3.27;100.00;101481.59;5009907;28;20029;-69
2020/12/16 04:43:20;;;;;;;656.45;60.90;;;;;;;3.20;100.00;101490.03;5009354;28;20602;-69
2020/12/16 04:45:47;;;;;;;547.10;51.97;;;;;;;3.13;100.00;101491.44;5009249;28;20029;-69
2020/12/16 04:48:14;;;;;;;633.22;56.67;;;;;;;3.07;100.00;101492.69;5008889;28;20065;-69
2020/12/16 04:50:41;;;;;;;524.08;55.65;;;;;;;3.01;100.00;101495.72;5009619;28;20053;-69
2020/12/16 04:53:09;;;;;;;488.38;50.58;;;;;;;2.97;100.00;101500.41;5009287;28;20045;-69
2020/12/16 04:55:35;;;;;;;366.08;41.40;;;;;;;2.94;100.00;101497.09;5009618;28;20087;-69
2020/12/16 04:58:02;;;;;;;595.63;56.55;;;;;;;2.89;100.00;101497.38;5008148;28;20030;-69
2020/12/16 05:00:30;;;;;;;453.80;52.10;;;;;;;2.85;100.00;101491.44;5009255;28;20407;-68
2020/12/16 05:02:58;;;;;;;703.50;62.42;;;;;;;2.81;100.00;101492.63;4999371;28;20038;-69
2020/12/16 05:05:25;;;;;;;452.77;45.47;;;;;;;2.75;100.00;101493.00;5009115;28;20030;-69
2020/12/16 05:07:51;;;;;;;321.90;37.00;;;;;;;2.70;100.00;101491.59;5008247;28;20041;-69
2020/12/16 05:10:30;;;;;;;584.33;54.80;;;;;;;2.65;100.00;101476.00;5009388;28;20045;-69
2020/12/16 05:13:12;;;;;;;568.85;55.70;;;;;;;2.61;100.00;101487.75;5007455;28;20034;-69
2020/12/16 05:15:39;;;;;;;268.45;40.08;;;;;;;2.57;100.00;101491.56;5009290;28;20475;-69
2020/12/16 05:18:11;;;;;;;405.20;44.45;;;;;;;2.55;100.00;101493.44;5007685;28;20064;-69
2020/12/16 05:20:39;;;;;;;358.90;44.55;;;;;;;2.54;100.00;101487.28;5008426;28;20030;-69
2020/12/16 05:23:06;;;;;;;259.50;35.00;;;;;;;2.52;100.00;101488.34;5008031;28;20094;-69
2020/12/16 05:25:33;;;;;;;448.35;49.85;;;;;;;2.43;100.00;101489.78;5009247;28;20065;-69
2020/12/16 05:28:00;;;;;;;405.45;41.92;;;;;;;2.39;100.00;101492.72;5007870;28;20052;-68
2020/12/16 05:30:26;;;;;;;294.25;37.78;;;;;;;2.28;100.00;101496.91;5009173;28;20028;-68
2020/12/16 05:32:53;;;;;;;361.23;41.92;;;;;;;2.19;100.00;101488.69;5008000;28;20026;-69
2020/12/16 05:35:21;;;;;;;245.88;35.10;;;;;;;2.12;100.00;101493.53;5007784;28;20053;-69
2020/12/16 05:37:46;;;;;;;436.33;46.35;;;;;;;2.04;100.00;101494.00;5003677;28;20037;-69
2020/12/16 05:40:15;;;;;;;277.33;37.63;;;;;;;1.97;100.00;101489.19;5008901;28;20034;-69
2020/12/16 05:42:41;;;;;;;433.92;47.90;;;;;;;1.90;100.00;101488.69;5008088;28;20034;-68
2020/12/16 05:45:12;;;;;;;384.70;44.45;;;;;;;1.86;100.00;101486.34;5009043;28;20387;-69
2020/12/16 05:47:39;;;;;;;563.08;53.78;;;;;;;1.80;100.00;101484.91;5007454;28;20053;-69
2020/12/16 05:50:15;;;;;;;486.42;49.70;;;;;;;1.74;100.00;101496.72;5004230;28;20026;-68
2020/12/16 05:52:40;;;;;;;281.73;37.05;;;;;;;1.69;100.00;101496.16;5006916;28;20034;-68
2020/12/16 05:55:06;;;;;;;539.47;51.50;;;;;;;1.64;100.00;101502.69;5008806;28;20088;-68
2020/12/16 05:57:32;;;;;;;454.30;42.53;;;;;;;1.55;100.00;101496.13;5007574;28;20398;-68
2020/12/16 06:00:12;;;;;;;151.43;28.27;;;;;;;1.50;100.00;101503.50;5008392;28;20038;-68
2020/12/16 06:02:40;;;;;;;303.88;39.00;;;;;;;1.46;100.00;101507.28;5007994;28;20065;-69
2020/12/16 06:05:09;;;;;;;96.53;24.42;;;;;;;1.43;100.00;101497.75;5008109;28;20064;-68
2020/12/16 06:07:40;;;;;;;119.82;26.08;;;;;;;1.52;100.00;101507.78;5007556;28;20038;-68
2020/12/16 06:10:07;;;;;;;472.13;46.97;;;;;;;1.51;100.00;101505.22;5008026;28;20116;-68
2020/12/16 06:12:43;;;;;;;270.70;40.03;;;;;;;1.41;100.00;101506.72;5008292;28;20044;-68
2020/12/16 06:15:11;;;;;;;399.48;42.75;;;;;;;1.32;100.00;101508.09;5006621;28;20065;-69
2020/12/16 06:17:44;;;;;;;100.78;23.88;;;;;;;1.26;100.00;101508.47;4997219;28;20045;-68
2020/12/16 06:20:14;;;;;;;116.68;25.67;;;;;;;1.24;100.00;101505.91;5006783;28;20058;-68
2020/12/16 06:22:42;;;;;;;97.90;24.13;;;;;;;1.24;100.00;101505.91;5008617;28;20505;-68
2020/12/16 06:25:10;;;;;;;86.25;24.30;;;;;;;1.30;100.00;101507.31;5007726;28;20034;-69
2020/12/16 06:27:45;;;;;;;107.18;24.75;;;;;;;1.37;100.00;101492.81;5007711;28;20034;-68
2020/12/16 06:30:19;;;;;;;98.65;23.98;;;;;;;1.44;100.00;101498.59;5008085;28;20053;-69
2020/12/16 06:32:49;;;;;;;110.30;24.02;;;;;;;1.41;100.00;101491.69;5009646;28;20033;-68
2020/12/16 06:35:18;;;;;;;136.30;27.73;;;;;;;1.40;100.00;101492.63;5011441;28;20080;-69
2020/12/16 06:37:44;;;;;;;123.47;29.25;;;;;;;1.46;100.00;101488.78;5008216;28;20117;-69
2020/12/16 06:40:10;;;;;;;114.82;29.23;;;;;;;1.52;100.00;101488.41;5011170;28;20072;-69
2020/12/16 06:42:36;;;;;;;213.52;34.95;;;;;;;1.50;100.00;101485.84;5012109;28;20065;-68
2020/12/16 06:45:11;;;;;;;177.27;33.50;;;;;;;1.43;100.00;101481.03;5011911;28;20030;-68
2020/12/16 06:47:37;;;;;;;125.88;26.88;;;;;;;1.35;100.00;101484.09;5010163;28;20034;-68
2020/12/16 06:50:16;;;;;;;136.25;26.30;;;;;;;1.31;100.00;101484.41;4994250;28;20613;-68
2020/12/16 06:52:42;;;;;;;87.80;24.58;;;;;;;1.33;100.00;101486.00;5011340;28;20041;-68
2020/12/16 06:55:08;;;;;;;115.00;24.67;;;;;;;1.31;100.00;101479.97;5011360;28;20033;-69
2020/12/16 06:57:44;;;;;;;142.45;32.75;;;;;;;1.29;100.00;101482.69;5011223;28;20052;-68
2020/12/16 07:00:16;;;;;;;150.20;33.58;;;;;;;1.31;100.00;101487.06;5011050;28;20513;-68
2020/12/16 07:02:42;;;;;;;173.90;36.05;;;;;;;1.31;100.00;101489.69;5001754;28;20502;-68
2020/12/16 07:05:39;;;;;;;144.50;32.25;;;;;;;1.35;100.00;101496.47;5010746;28;20029;-69
2020/12/16 07:08:06;;;;;;;163.77;36.13;;;;;;;1.43;100.00;101499.53;5011267;28;20508;-69
2020/12/16 07:10:34;;;;;;;123.30;30.70;;;;;;;1.39;100.00;101490.06;5011020;28;20033;-68
2020/12/16 07:13:09;;;;;;;162.10;37.40;;;;;;;1.37;100.00;101494.63;5011822;28;20029;-68
2020/12/16 07:15:44;;;;;;;189.68;37.03;;;;;;;1.34;100.00;101485.06;5010467;28;20121;-69
2020/12/16 07:18:41;;;;;;;185.93;37.33;;;;;;;1.34;100.00;101494.78;5011224;28;20162;-70
2020/12/16 07:21:06;;;;;;;244.13;40.83;;;;;;;1.29;100.00;101509.13;5010999;28;20092;-68
2020/12/16 07:23:46;;;;;;;175.13;38.20;;;;;;;1.24;100.00;101503.25;5011318;28;20042;-69
2020/12/16 07:26:18;;;;;;;173.50;35.42;;;;;;;1.24;100.00;101510.34;5010178;28;20631;-69
2020/12/16 07:28:44;;;;;;;116.63;30.63;;;;;;;1.29;100.00;101511.75;5026296;28;20748;-69
2020/12/16 07:31:10;;;;;;;166.15;34.53;;;;;;;1.39;100.00;101498.00;5010470;28;20029;-68
2020/12/16 07:33:36;;;;;;;219.07;33.40;;;;;;;1.47;100.00;101501.06;5011261;28;20449;-69
2020/12/16 07:36:03;;;;;;;118.15;29.92;;;;;;;1.52;100.00;101494.53;5010550;28;20044;-69
2020/12/16 07:38:29;;;;;;;102.05;28.50;;;;;;;1.62;100.00;101496.66;5025692;28;20056;-69
2020/12/16 07:40:56;;;;;;;128.60;31.63;;;;;;;1.62;100.00;101489.56;5010202;28;20128;-69
2020/12/16 07:43:22;;;;;;;120.43;31.08;;;;;;;1.65;100.00;101493.78;5009781;28;20076;-69
2020/12/16 07:46:03;;;;;;;151.57;32.17;;;;;;;1.65;100.00;101492.00;5025202;28;20049;-69
2020/12/16 07:48:30;;;;;;;230.45;36.05;;;;;;;1.58;100.00;101484.53;5010829;28;20026;-69
2020/12/16 07:51:01;;;;;;;128.05;32.10;;;;;;;1.49;100.00;101484.13;5008892;28;20080;-69
2020/12/16 07:53:26;;;;;;;132.82;32.35;;;;;;;1.43;100.00;101488.97;5010848;28;20030;-69
2020/12/16 07:55:58;;;;;;;159.68;35.63;;;;;;;1.39;100.00;101503.28;5010031;28;20034;-69
2020/12/16 07:58:24;;;;;;;152.35;34.63;;;;;;;1.35;100.00;101505.25;5010105;28;20041;-68
2020/12/16 08:00:49;;;;;;;146.20;34.50;;;;;;;1.32;100.00;101510.75;5007304;28;20026;-69
2020/12/16 08:03:17;;;;;;;105.03;28.98;;;;;;;1.35;100.00;101504.41;5003964;28;20120;-69
2020/12/16 08:05:43;;;;;;;114.75;30.52;;;;;;;1.46;100.00;101507.28;5009876;28;20116;-69
2020/12/16 08:08:09;;;;;;;85.13;26.73;;;;;;;1.53;100.00;101508.63;5010389;28;20041;-69
2020/12/16 08:10:35;;;;;;;109.78;27.35;;;;;;;1.58;100.00;101506.53;5009830;28;20176;-69
2020/12/16 08:13:00;;;;;;;319.38;39.90;;;;;;;1.56;100.00;101505.81;5010640;28;20538;-69
2020/12/16 08:15:29;;;;;;;247.93;34.83;;;;;;;1.59;100.00;101494.16;5009607;28;20038;-69
2020/12/16 08:17:55;;;;;;;158.75;31.77;;;;;;;1.63;100.00;101499.19;5009494;28;20030;-69
2020/12/16 08:20:23;;;;;;;79.10;24.52;;;;;;;1.72;100.00;101505.72;5009575;28;20037;-69
2020/12/16 08:22:55;;;;;;;64.25;20.55;;;;;;;1.79;100.00;101502.59;5010304;28;20083;-68
2020/12/16 08:25:22;;;;;;;169.68;24.58;;;;;;;1.88;100.00;101493.25;5009955;28;20033;-69
2020/12/16 08:27:50;;;;;;;90.43;22.92;;;;;;;1.97;100.00;101483.91;5009216;28;20060;-69
2020/12/16 08:30:21;;;;;;;135.20;25.30;;;;;;;2.00;100.00;101486.34;5009785;28;20498;-69
2020/12/16 08:33:03;;;;;;;122.13;24.52;;;;;;;1.99;100.00;101480.19;5009188;28;20026;-69
2020/12/16 08:35:32;;;;;;;165.73;26.25;;;;;;;1.97;100.00;101482.09;5007295;28;20087;-69
2020/12/16 08:38:03;;;;;;;142.20;24.75;;;;;;;1.95;100.00;101483.97;5006291;28;20486;-69
2020/12/16 08:40:30;;;;;;;221.27;31.10;;;;;;;1.93;100.00;101477.09;5009631;28;20482;-69
2020/12/16 08:43:15;;;;;;;221.10;32.10;;;;;;;1.88;100.00;101466.78;5009631;28;20034;-69
2020/12/16 08:45:41;;;;;;;129.02;30.00;;;;;;;1.88;100.00;101481.81;5009578;28;20037;-69
2020/12/16 08:48:07;;;;;;;100.35;29.02;;;;;;;1.92;100.00;101478.03;5009442;28;20031;-69
2020/12/16 08:50:32;;;;;;;105.97;31.45;;;;;;;2.02;100.00;101485.31;5009285;28;20053;-68
2020/12/16 08:52:59;;;;;;;104.05;30.48;;;;;;;2.22;100.00;101485.84;5009512;28;20026;-69
2020/12/16 08:55:25;;;;;;;109.90;32.60;;;;;;;2.39;100.00;101492.72;5009807;28;20041;-69
2020/12/16 08:57:52;;;;;;;107.88;33.15;;;;;;;2.49;100.00;101488.53;5008045;28;20125;-69
2020/12/16 09:00:17;;;;;;;101.45;30.00;;;;;;;2.58;100.00;101490.59;5009558;28;20038;-69
2020/12/16 09:02:43;;;;;;;119.35;32.92;;;;;;;2.69;100.00;101482.78;4999586;28;20053;-69
2020/12/16 09:05:09;;;;;;;102.18;30.58;;;;;;;2.83;100.00;101488.06;5009296;28;20391;-68
2020/12/16 09:07:35;;;;;;;117.45;32.25;;;;;;;2.99;100.00;101495.00;5008270;28;20394;-68
2020/12/16 09:10:02;;;;;;;112.50;30.80;;;;;;;3.16;100.00;101500.00;5009421;28;20425;-69
2020/12/16 09:12:28;;;;;;;103.03;31.10;;;;;;;3.34;100.00;101508.53;5008749;28;20395;-68
2020/12/16 09:14:58;;;;;;;98.07;29.65;;;;;;;3.48;100.00;101515.56;5009206;28;20048;-68
2020/12/16 09:17:25;;;;;;;92.07;28.40;;;;;;;3.65;100.00;101507.28;5008252;28;20506;-69
2020/12/16 09:19:52;;;;;;;92.10;28.15;;;;;;;3.85;100.00;101505.91;5009243;28;20141;-68
2020/12/16 09:22:28;;;;;;;91.03;30.20;;;;;;;4.13;100.00;101507.50;5008666;28;20101;-69
2020/12/16 09:24:55;;;;;;;100.35;30.02;;;;;;;4.40;100.00;101500.19;5008465;28;20398;-68
2020/12/16 09:27:20;;;;;;;88.43;27.35;;;;;;;4.50;100.00;101499.53;5007896;28;20564;-69
2020/12/16 09:29:47;;;;;;;81.30;24.23;;;;;;;4.64;100.00;101502.91;5008900;28;20034;-69
2020/12/16 09:32:15;;;;;;;84.00;25.77;;;;;;;4.81;100.00;101496.31;5008669;28;20037;-69
2020/12/16 09:34:43;;;;;;;83.65;24.27;;;;;;;5.02;100.00;101501.00;5008830;28;20037;-69
2020/12/16 09:37:12;;;;;;;77.65;23.42;;;;;;;5.19;100.00;101505.94;5002871;28;20030;-69
2020/12/16 09:39:37;;;;;;;92.72;24.73;;;;;;;5.26;100.00;101498.34;5008727;28;20034;-68
2020/12/16 09:42:08;;;;;;;87.65;25.98;;;;;;;5.33;100.00;101500.44;5008139;28;20026;-69
2020/12/16 09:44:34;;;;;;;75.30;23.38;;;;;;;5.49;100.00;101497.44;5008806;28;20033;-69
2020/12/16 09:47:12;;;;;;;78.90;23.63;;;;;;;5.66;100.00;101493.47;5007861;28;20560;-69
2020/12/16 09:49:38;;;;;;;69.93;22.48;;;;;;;5.79;100.00;101496.03;5008767;28;20034;-68
2020/12/16 09:52:05;;;;;;;65.28;21.60;;;;;;;5.90;100.00;101499.56;5008124;28;20427;-68
2020/12/16 09:54:31;;;;;;;90.18;24.98;;;;;;;6.00;100.00;101494.38;5009134;28;20517;-69
2020/12/16 09:57:10;;;;;;;66.10;23.55;;;;;;;6.16;100.00;101488.69;5007584;28;20025;-69
2020/12/16 09:59:36;;;;;;;67.80;23.48;;;;;;;6.26;100.00;101484.31;5008656;28;20033;-68
2020/12/16 10:02:03;;;;;;;71.68;23.27;;;;;;;6.31;100.00;101489.28;4998933;28;20026;-69
2020/12/16 10:04:29;;;;;;;62.67;22.08;;;;;;;6.37;100.00;101483.44;5007840;28;20044;-68
2020/12/16 10:06:54;;;;;;;57.05;20.90;;;;;;;6.44;100.00;101490.00;5022656;28;20034;-69
2020/12/16 10:09:20;;;;;;;61.05;23.60;;;;;;;6.56;100.00;101483.66;5008162;28;20456;-68
2020/12/16 10:11:48;;;;;;;71.40;23.42;;;;;;;6.58;100.00;101478.22;5008335;28;20030;-69
2020/12/16 10:14:17;;;;;;;71.95;25.00;;;;;;;6.65;100.00;101468.75;5007968;28;20030;-68
2020/12/16 10:16:44;;;;;;;72.07;25.17;;;;;;;6.71;100.00;101466.41;5003953;28;20022;-68
2020/12/16 10:19:10;;;;;;;69.68;23.42;;;;;;;6.83;100.00;101464.56;4998591;28;20030;-68
2020/12/16 10:21:36;;;;;;;60.60;21.35;;;;;;;6.91;100.00;101464.75;5008295;28;20026;-69
2020/12/16 10:24:01;;;;;;;47.22;18.35;;;;;;;6.95;100.00;101474.22;5008013;28;20164;-68
2020/12/16 10:26:27;;;;;;;52.33;18.67;;;;;;;7.01;100.00;101476.38;5007610;28;20417;-69
2020/12/16 10:28:52;;;;;;;49.63;17.98;;;;;;;7.08;100.00;101476.72;5007769;28;20095;-68
2020/12/16 10:31:18;;;;;;;51.92;18.95;;;;;;;7.12;100.00;101474.63;5008032;28;20026;-69
2020/12/16 10:33:43;;;;;;;47.25;18.33;;;;;;;7.14;100.00;101468.19;5007481;28;20040;-69
2020/12/16 10:36:11;;;;;;;42.35;17.55;;;;;;;7.26;100.00;101464.47;5000149;28;20120;-68
2020/12/16 10:38:37;;;;;;;47.25;17.95;;;;;;;7.32;100.00;101451.59;5007568;28;20088;-69
2020/12/16 10:41:02;;;;;;;49.97;17.50;;;;;;;7.42;100.00;101460.50;5007924;28;20510;-69
2020/12/16 10:43:28;;;;;;;50.70;16.05;;;;;;;7.41;100.00;101440.97;5008065;28;20100;-68
2020/12/16 10:45:55;;;;;;;39.53;15.75;;;;;;;7.42;100.00;101448.00;5008016;28;20096;-68
2020/12/16 10:48:22;;;;;;;34.35;14.30;;;;;;;7.47;100.00;101443.09;5006935;28;20038;-69
2020/12/16 10:50:47;;;;;;;40.70;16.35;;;;;;;7.56;100.00;101432.63;5008118;28;20502;-69
2020/12/16 10:53:13;;;;;;;35.28;14.88;;;;;;;7.65;100.00;101430.00;5007716;28;20038;-68
2020/12/16 10:55:38;;;;;;;36.50;14.98;;;;;;;7.73;100.00;101422.19;5007958;28;20042;-68
2020/12/16 10:58:04;;;;;;;33.85;13.07;;;;;;;7.81;100.00;101420.66;5007204;28;20490;-68
2020/12/16 11:00:30;;;;;;;32.47;13.65;;;;;;;7.88;100.00;101421.81;5007670;28;20030;-68
2020/12/16 11:02:56;;;;;;;32.20;14.32;;;;;;;7.90;100.00;101419.84;5003154;28;20034;-69